Northcote, Minnesota
Current Conditions -  °F | °C
As of 8:15 AM on Friday 19 Dec 2014 (Local Time) from KHCO Reporting Station
Haze Haze  
Wind Chill: 14°   Ceiling: 400
Heat Index: 25°   Visibility: 1.7mi
Dew Point: 21°   Wind: 12mph
Humidity: 86%   Direction: 160°SSE
Pressure: 30.07"   Gusts: NA
Location:  48.7954°N, 97.009°W
Report Text: KHCO 191415Z AUTO 16010KT 1 3/4SM BR BKN004 OVC060 M04/M06 A3007 RMK AO2
Loading
Personal Weather Stations






























Interactive Weather Map New forecast layout! Learn more

10-Day Weather Forecast

Advertisements
Track Severe Weather on mobile